sensor_id;sensor_type;location;lat;lon;timestamp;temperature;humidity
7708;DHT22;3896;48.758;8.888;2023-02-02T00:02:01;6.30;94.10
7708;DHT22;3896;48.758;8.888;2023-02-02T00:04:33;6.30;94.20
7708;DHT22;3896;48.758;8.888;2023-02-02T00:07:00;6.30;94.30
7708;DHT22;3896;48.758;8.888;2023-02-02T00:09:29;6.30;94.30
7708;DHT22;3896;48.758;8.888;2023-02-02T00:11:55;6.30;94.40
7708;DHT22;3896;48.758;8.888;2023-02-02T00:14:22;6.30;94.50
7708;DHT22;3896;48.758;8.888;2023-02-02T00:16:49;6.30;94.60
7708;DHT22;3896;48.758;8.888;2023-02-02T00:19:17;6.30;94.70
7708;DHT22;3896;48.758;8.888;2023-02-02T00:21:44;6.30;94.80
7708;DHT22;3896;48.758;8.888;2023-02-02T00:24:11;6.30;94.90
7708;DHT22;3896;48.758;8.888;2023-02-02T00:26:38;6.30;94.90
7708;DHT22;3896;48.758;8.888;2023-02-02T00:29:06;6.30;95.00
7708;DHT22;3896;48.758;8.888;2023-02-02T00:31:32;6.30;95.10
7708;DHT22;3896;48.758;8.888;2023-02-02T00:33:57;6.30;95.20
7708;DHT22;3896;48.758;8.888;2023-02-02T00:36:24;6.30;95.30
7708;DHT22;3896;48.758;8.888;2023-02-02T00:38:50;6.30;95.50
7708;DHT22;3896;48.758;8.888;2023-02-02T00:41:16;6.40;95.60
7708;DHT22;3896;48.758;8.888;2023-02-02T00:43:42;6.40;95.60
7708;DHT22;3896;48.758;8.888;2023-02-02T00:46:15;6.30;95.70
7708;DHT22;3896;48.758;8.888;2023-02-02T00:48:41;6.30;95.80
7708;DHT22;3896;48.758;8.888;2023-02-02T00:51:07;6.30;95.80
7708;DHT22;3896;48.758;8.888;2023-02-02T00:53:33;6.30;95.90
7708;DHT22;3896;48.758;8.888;2023-02-02T00:55:58;6.40;96.00
7708;DHT22;3896;48.758;8.888;2023-02-02T00:58:24;6.40;96.00
7708;DHT22;3896;48.758;8.888;2023-02-02T01:00:50;6.40;96.10
7708;DHT22;3896;48.758;8.888;2023-02-02T01:03:16;6.40;96.10
7708;DHT22;3896;48.758;8.888;2023-02-02T01:05:42;6.40;96.20
7708;DHT22;3896;48.758;8.888;2023-02-02T01:08:07;6.40;96.40
7708;DHT22;3896;48.758;8.888;2023-02-02T01:10:33;6.40;96.50
7708;DHT22;3896;48.758;8.888;2023-02-02T01:12:59;6.40;96.70
7708;DHT22;3896;48.758;8.888;2023-02-02T01:15:25;6.40;96.90
7708;DHT22;3896;48.758;8.888;2023-02-02T01:17:50;6.40;97.40
7708;DHT22;3896;48.758;8.888;2023-02-02T01:20:18;6.30;97.80
7708;DHT22;3896;48.758;8.888;2023-02-02T01:22:45;6.40;98.30
7708;DHT22;3896;48.758;8.888;2023-02-02T01:25:10;6.40;99.20
7708;DHT22;3896;48.758;8.888;2023-02-02T01:27:36;6.30;99.60
7708;DHT22;3896;48.758;8.888;2023-02-02T01:30:02;6.30;99.70
7708;DHT22;3896;48.758;8.888;2023-02-02T01:32:27;6.30;99.90
7708;DHT22;3896;48.758;8.888;2023-02-02T01:34:53;6.30;99.90
7708;DHT22;3896;48.758;8.888;2023-02-02T01:37:18;6.20;99.90
7708;DHT22;3896;48.758;8.888;2023-02-02T01:39:46;6.20;99.90
7708;DHT22;3896;48.758;8.888;2023-02-02T01:42:19;6.20;99.90
7708;DHT22;3896;48.758;8.888;2023-02-02T01:47:36;6.20;99.90
7708;DHT22;3896;48.758;8.888;2023-02-02T01:50:03;6.20;99.90
7708;DHT22;3896;48.758;8.888;2023-02-02T01:52:31;6.20;99.90
7708;DHT22;3896;48.758;8.888;2023-02-02T01:55:02;6.20;99.90
7708;DHT22;3896;48.758;8.888;2023-02-02T01:57:36;6.20;99.90
7708;DHT22;3896;48.758;8.888;2023-02-02T02:00:08;6.20;99.90
7708;DHT22;3896;48.758;8.888;2023-02-02T02:02:34;6.20;99.90
7708;DHT22;3896;48.758;8.888;2023-02-02T02:05:02;6.20;99.90
7708;DHT22;3896;48.758;8.888;2023-02-02T02:07:28;6.10;99.90
7708;DHT22;3896;48.758;8.888;2023-02-02T02:09:54;6.10;99.90
7708;DHT22;3896;48.758;8.888;2023-02-02T02:12:20;6.10;99.90
7708;DHT22;3896;48.758;8.888;2023-02-02T02:14:48;6.10;99.90
7708;DHT22;3896;48.758;8.888;2023-02-02T02:17:49;6.10;99.90
7708;DHT22;3896;48.758;8.888;2023-02-02T02:23:43;6.10;99.90
7708;DHT22;3896;48.758;8.888;2023-02-02T02:32:26;6.10;99.90
7708;DHT22;3896;48.758;8.888;2023-02-02T02:40:29;6.10;99.90
7708;DHT22;3896;48.758;8.888;2023-02-02T02:43:09;6.10;99.90
7708;DHT22;3896;48.758;8.888;2023-02-02T02:45:36;6.10;99.90
7708;DHT22;3896;48.758;8.888;2023-02-02T02:48:03;6.10;99.90
7708;DHT22;3896;48.758;8.888;2023-02-02T02:50:28;6.10;99.90
7708;DHT22;3896;48.758;8.888;2023-02-02T02:53:10;6.10;99.90
7708;DHT22;3896;48.758;8.888;2023-02-02T03:01:00;6.10;99.90
7708;DHT22;3896;48.758;8.888;2023-02-02T03:03:49;6.10;99.90
7708;DHT22;3896;48.758;8.888;2023-02-02T03:06:32;6.10;99.90
7708;DHT22;3896;48.758;8.888;2023-02-02T03:09:02;6.20;99.90
7708;DHT22;3896;48.758;8.888;2023-02-02T03:11:28;6.20;99.90
7708;DHT22;3896;48.758;8.888;2023-02-02T03:13:54;6.20;99.90
7708;DHT22;3896;48.758;8.888;2023-02-02T03:16:20;6.20;99.90
7708;DHT22;3896;48.758;8.888;2023-02-02T03:18:46;6.20;99.90
7708;DHT22;3896;48.758;8.888;2023-02-02T03:21:11;6.20;99.90
7708;DHT22;3896;48.758;8.888;2023-02-02T03:23:37;6.20;99.90
7708;DHT22;3896;48.758;8.888;2023-02-02T03:26:03;6.20;99.90
7708;DHT22;3896;48.758;8.888;2023-02-02T03:28:30;6.20;99.90
7708;DHT22;3896;48.758;8.888;2023-02-02T03:30:57;6.20;99.90
7708;DHT22;3896;48.758;8.888;2023-02-02T03:33:23;6.20;99.90
7708;DHT22;3896;48.758;8.888;2023-02-02T03:35:49;6.20;99.90
7708;DHT22;3896;48.758;8.888;2023-02-02T03:38:15;6.20;99.90
7708;DHT22;3896;48.758;8.888;2023-02-02T03:40:40;6.20;99.90
7708;DHT22;3896;48.758;8.888;2023-02-02T03:43:06;6.20;99.90
7708;DHT22;3896;48.758;8.888;2023-02-02T03:45:31;6.30;99.90
7708;DHT22;3896;48.758;8.888;2023-02-02T03:48:01;6.20;99.90
7708;DHT22;3896;48.758;8.888;2023-02-02T03:50:27;6.30;99.90
7708;DHT22;3896;48.758;8.888;2023-02-02T03:52:53;6.30;99.90
7708;DHT22;3896;48.758;8.888;2023-02-02T03:55:20;6.20;99.90
7708;DHT22;3896;48.758;8.888;2023-02-02T03:57:45;6.30;99.90
7708;DHT22;3896;48.758;8.888;2023-02-02T04:00:11;6.30;99.90
7708;DHT22;3896;48.758;8.888;2023-02-02T04:02:37;6.30;99.90
7708;DHT22;3896;48.758;8.888;2023-02-02T04:05:03;6.30;99.90
7708;DHT22;3896;48.758;8.888;2023-02-02T04:07:28;6.30;99.90
7708;DHT22;3896;48.758;8.888;2023-02-02T04:09:54;6.30;99.90
7708;DHT22;3896;48.758;8.888;2023-02-02T04:12:20;6.30;99.90
7708;DHT22;3896;48.758;8.888;2023-02-02T04:14:45;6.20;99.90
7708;DHT22;3896;48.758;8.888;2023-02-02T04:17:11;6.30;99.90
7708;DHT22;3896;48.758;8.888;2023-02-02T04:19:36;6.30;99.90
7708;DHT22;3896;48.758;8.888;2023-02-02T04:22:02;6.30;99.90
7708;DHT22;3896;48.758;8.888;2023-02-02T04:24:27;6.30;99.90
7708;DHT22;3896;48.758;8.888;2023-02-02T04:26:53;6.30;99.90
7708;DHT22;3896;48.758;8.888;2023-02-02T04:29:19;6.30;99.90
7708;DHT22;3896;48.758;8.888;2023-02-02T04:31:44;6.30;99.90
7708;DHT22;3896;48.758;8.888;2023-02-02T04:34:10;6.30;99.90
7708;DHT22;3896;48.758;8.888;2023-02-02T04:36:35;6.30;99.90
7708;DHT22;3896;48.758;8.888;2023-02-02T04:39:01;6.30;99.90
7708;DHT22;3896;48.758;8.888;2023-02-02T04:41:26;6.30;99.90
7708;DHT22;3896;48.758;8.888;2023-02-02T04:43:52;6.30;99.90
7708;DHT22;3896;48.758;8.888;2023-02-02T04:46:18;6.30;99.90
7708;DHT22;3896;48.758;8.888;2023-02-02T04:48:43;6.40;99.90
7708;DHT22;3896;48.758;8.888;2023-02-02T04:51:12;6.40;99.90
7708;DHT22;3896;48.758;8.888;2023-02-02T04:53:39;6.40;99.90
7708;DHT22;3896;48.758;8.888;2023-02-02T04:56:16;6.40;99.90
7708;DHT22;3896;48.758;8.888;2023-02-02T04:58:43;6.40;99.90
7708;DHT22;3896;48.758;8.888;2023-02-02T05:01:17;6.40;99.90
7708;DHT22;3896;48.758;8.888;2023-02-02T05:03:44;6.40;99.90
7708;DHT22;3896;48.758;8.888;2023-02-02T05:06:10;6.40;99.90
7708;DHT22;3896;48.758;8.888;2023-02-02T05:08:36;6.40;99.90
7708;DHT22;3896;48.758;8.888;2023-02-02T05:11:09;6.40;99.90
7708;DHT22;3896;48.758;8.888;2023-02-02T05:13:35;6.40;99.90
7708;DHT22;3896;48.758;8.888;2023-02-02T05:16:01;6.40;99.90
7708;DHT22;3896;48.758;8.888;2023-02-02T05:18:27;6.40;99.90
7708;DHT22;3896;48.758;8.888;2023-02-02T05:20:53;6.40;99.90
7708;DHT22;3896;48.758;8.888;2023-02-02T05:23:19;6.40;99.90
7708;DHT22;3896;48.758;8.888;2023-02-02T05:25:51;6.40;99.90
7708;DHT22;3896;48.758;8.888;2023-02-02T05:28:17;6.50;99.90
7708;DHT22;3896;48.758;8.888;2023-02-02T05:30:43;6.50;99.90
7708;DHT22;3896;48.758;8.888;2023-02-02T05:33:08;6.50;99.90
7708;DHT22;3896;48.758;8.888;2023-02-02T05:35:34;6.50;99.90
7708;DHT22;3896;48.758;8.888;2023-02-02T05:38:00;6.50;99.90
7708;DHT22;3896;48.758;8.888;2023-02-02T05:40:26;6.50;99.90
7708;DHT22;3896;48.758;8.888;2023-02-02T05:42:51;6.50;99.90
7708;DHT22;3896;48.758;8.888;2023-02-02T05:45:17;6.50;99.90
7708;DHT22;3896;48.758;8.888;2023-02-02T05:47:42;6.50;99.90
7708;DHT22;3896;48.758;8.888;2023-02-02T05:50:08;6.50;99.90
7708;DHT22;3896;48.758;8.888;2023-02-02T05:52:34;6.50;99.90
7708;DHT22;3896;48.758;8.888;2023-02-02T05:55:01;6.50;99.90
7708;DHT22;3896;48.758;8.888;2023-02-02T05:57:27;6.50;99.90
7708;DHT22;3896;48.758;8.888;2023-02-02T05:59:53;6.50;99.90
7708;DHT22;3896;48.758;8.888;2023-02-02T06:02:19;6.50;99.90
7708;DHT22;3896;48.758;8.888;2023-02-02T06:04:45;6.50;99.90
7708;DHT22;3896;48.758;8.888;2023-02-02T06:07:10;6.50;99.90
7708;DHT22;3896;48.758;8.888;2023-02-02T06:09:36;6.50;99.90
7708;DHT22;3896;48.758;8.888;2023-02-02T06:12:02;6.50;99.90
7708;DHT22;3896;48.758;8.888;2023-02-02T06:14:28;6.50;99.90
7708;DHT22;3896;48.758;8.888;2023-02-02T06:16:54;6.50;99.90
7708;DHT22;3896;48.758;8.888;2023-02-02T06:19:19;6.50;99.90
7708;DHT22;3896;48.758;8.888;2023-02-02T06:21:45;6.50;99.90
7708;DHT22;3896;48.758;8.888;2023-02-02T06:24:11;6.60;99.90
7708;DHT22;3896;48.758;8.888;2023-02-02T06:26:36;6.50;99.90
7708;DHT22;3896;48.758;8.888;2023-02-02T06:29:02;6.50;99.90
7708;DHT22;3896;48.758;8.888;2023-02-02T06:31:28;6.60;99.90
7708;DHT22;3896;48.758;8.888;2023-02-02T06:33:55;6.60;99.90
7708;DHT22;3896;48.758;8.888;2023-02-02T06:36:23;6.60;99.90
7708;DHT22;3896;48.758;8.888;2023-02-02T06:38:50;6.60;99.90
7708;DHT22;3896;48.758;8.888;2023-02-02T06:41:17;6.60;99.90
7708;DHT22;3896;48.758;8.888;2023-02-02T06:43:43;6.60;99.90
7708;DHT22;3896;48.758;8.888;2023-02-02T06:46:08;6.60;99.90
7708;DHT22;3896;48.758;8.888;2023-02-02T06:48:34;6.60;99.90
7708;DHT22;3896;48.758;8.888;2023-02-02T06:51:00;6.50;99.90
7708;DHT22;3896;48.758;8.888;2023-02-02T06:53:26;6.60;99.90
7708;DHT22;3896;48.758;8.888;2023-02-02T06:55:56;6.50;99.90
7708;DHT22;3896;48.758;8.888;2023-02-02T06:58:22;6.50;99.90
7708;DHT22;3896;48.758;8.888;2023-02-02T07:00:48;6.50;99.90
7708;DHT22;3896;48.758;8.888;2023-02-02T07:03:17;6.60;99.90
7708;DHT22;3896;48.758;8.888;2023-02-02T07:05:46;6.60;99.90
7708;DHT22;3896;48.758;8.888;2023-02-02T07:08:11;6.60;99.90
7708;DHT22;3896;48.758;8.888;2023-02-02T07:10:37;6.60;99.90
7708;DHT22;3896;48.758;8.888;2023-02-02T07:13:03;6.60;99.90
7708;DHT22;3896;48.758;8.888;2023-02-02T07:15:31;6.60;99.90
7708;DHT22;3896;48.758;8.888;2023-02-02T07:17:57;6.60;99.90
7708;DHT22;3896;48.758;8.888;2023-02-02T07:20:22;6.60;99.90
7708;DHT22;3896;48.758;8.888;2023-02-02T07:22:48;6.60;99.90
7708;DHT22;3896;48.758;8.888;2023-02-02T07:25:14;6.60;99.90
7708;DHT22;3896;48.758;8.888;2023-02-02T07:27:40;6.60;99.90
7708;DHT22;3896;48.758;8.888;2023-02-02T07:30:06;6.60;99.90
7708;DHT22;3896;48.758;8.888;2023-02-02T07:32:31;6.60;99.90
7708;DHT22;3896;48.758;8.888;2023-02-02T07:34:57;6.60;99.90
7708;DHT22;3896;48.758;8.888;2023-02-02T07:37:22;6.60;99.90
7708;DHT22;3896;48.758;8.888;2023-02-02T07:39:48;6.60;99.90
7708;DHT22;3896;48.758;8.888;2023-02-02T07:42:13;6.60;99.90
7708;DHT22;3896;48.758;8.888;2023-02-02T07:44:39;6.60;99.90
7708;DHT22;3896;48.758;8.888;2023-02-02T07:47:05;6.60;99.90
7708;DHT22;3896;48.758;8.888;2023-02-02T07:49:30;6.60;99.90
7708;DHT22;3896;48.758;8.888;2023-02-02T07:51:56;6.60;99.90
7708;DHT22;3896;48.758;8.888;2023-02-02T07:54:22;6.70;99.90
7708;DHT22;3896;48.758;8.888;2023-02-02T07:56:48;6.70;99.90
7708;DHT22;3896;48.758;8.888;2023-02-02T07:59:13;6.70;99.90
7708;DHT22;3896;48.758;8.888;2023-02-02T08:01:39;6.70;99.90
7708;DHT22;3896;48.758;8.888;2023-02-02T08:04:05;6.70;99.90
7708;DHT22;3896;48.758;8.888;2023-02-02T08:06:33;6.70;99.90
7708;DHT22;3896;48.758;8.888;2023-02-02T08:09:00;6.70;99.90
7708;DHT22;3896;48.758;8.888;2023-02-02T08:11:27;6.70;99.90
7708;DHT22;3896;48.758;8.888;2023-02-02T08:14:00;6.70;99.90
7708;DHT22;3896;48.758;8.888;2023-02-02T08:16:27;6.70;99.90
7708;DHT22;3896;48.758;8.888;2023-02-02T08:18:53;6.70;99.90
7708;DHT22;3896;48.758;8.888;2023-02-02T08:21:19;6.70;99.90
7708;DHT22;3896;48.758;8.888;2023-02-02T08:23:45;6.80;99.90
7708;DHT22;3896;48.758;8.888;2023-02-02T08:26:19;6.80;99.90
7708;DHT22;3896;48.758;8.888;2023-02-02T08:28:48;6.80;99.90
7708;DHT22;3896;48.758;8.888;2023-02-02T08:31:30;6.80;99.90
7708;DHT22;3896;48.758;8.888;2023-02-02T08:33:56;6.80;99.90
7708;DHT22;3896;48.758;8.888;2023-02-02T08:36:24;6.80;99.90
7708;DHT22;3896;48.758;8.888;2023-02-02T08:38:50;6.80;99.90
7708;DHT22;3896;48.758;8.888;2023-02-02T08:41:18;6.80;99.90
7708;DHT22;3896;48.758;8.888;2023-02-02T08:43:44;6.90;99.90
7708;DHT22;3896;48.758;8.888;2023-02-02T08:46:11;6.90;99.90
7708;DHT22;3896;48.758;8.888;2023-02-02T08:48:38;6.90;99.90
7708;DHT22;3896;48.758;8.888;2023-02-02T08:51:04;6.90;99.90
7708;DHT22;3896;48.758;8.888;2023-02-02T08:53:31;6.90;99.90
7708;DHT22;3896;48.758;8.888;2023-02-02T08:58:30;7.00;99.90
7708;DHT22;3896;48.758;8.888;2023-02-02T09:01:23;7.00;99.90
7708;DHT22;3896;48.758;8.888;2023-02-02T09:03:52;7.00;99.90
7708;DHT22;3896;48.758;8.888;2023-02-02T09:06:19;7.00;99.90
7708;DHT22;3896;48.758;8.888;2023-02-02T09:08:45;7.00;99.90
7708;DHT22;3896;48.758;8.888;2023-02-02T09:11:16;6.90;99.90
7708;DHT22;3896;48.758;8.888;2023-02-02T09:13:43;7.00;99.90
7708;DHT22;3896;48.758;8.888;2023-02-02T09:16:11;7.00;99.90
7708;DHT22;3896;48.758;8.888;2023-02-02T09:18:38;7.00;99.90
7708;DHT22;3896;48.758;8.888;2023-02-02T09:21:06;7.00;99.90
7708;DHT22;3896;48.758;8.888;2023-02-02T09:23:33;7.00;99.90
7708;DHT22;3896;48.758;8.888;2023-02-02T09:26:09;7.00;99.90
7708;DHT22;3896;48.758;8.888;2023-02-02T09:28:36;7.00;99.90
7708;DHT22;3896;48.758;8.888;2023-02-02T09:31:02;7.00;99.90
7708;DHT22;3896;48.758;8.888;2023-02-02T09:33:28;7.00;99.90
7708;DHT22;3896;48.758;8.888;2023-02-02T09:35:54;7.10;99.90
7708;DHT22;3896;48.758;8.888;2023-02-02T09:38:19;7.00;99.90
7708;DHT22;3896;48.758;8.888;2023-02-02T09:40:45;7.10;99.90
7708;DHT22;3896;48.758;8.888;2023-02-02T09:49:08;7.10;99.90
7708;DHT22;3896;48.758;8.888;2023-02-02T09:51:40;7.10;99.90
7708;DHT22;3896;48.758;8.888;2023-02-02T09:54:16;7.10;99.90
7708;DHT22;3896;48.758;8.888;2023-02-02T09:56:44;7.10;99.90
7708;DHT22;3896;48.758;8.888;2023-02-02T09:59:17;7.20;99.90
7708;DHT22;3896;48.758;8.888;2023-02-02T10:01:45;7.20;99.90
7708;DHT22;3896;48.758;8.888;2023-02-02T10:04:49;7.20;99.90
7708;DHT22;3896;48.758;8.888;2023-02-02T10:07:19;7.20;99.90
7708;DHT22;3896;48.758;8.888;2023-02-02T10:10:01;7.20;99.90
7708;DHT22;3896;48.758;8.888;2023-02-02T10:20:50;7.20;99.90
7708;DHT22;3896;48.758;8.888;2023-02-02T10:23:39;7.20;99.90
7708;DHT22;3896;48.758;8.888;2023-02-02T10:26:39;7.20;99.90
7708;DHT22;3896;48.758;8.888;2023-02-02T10:29:17;7.20;99.90
7708;DHT22;3896;48.758;8.888;2023-02-02T10:34:53;7.20;99.90
7708;DHT22;3896;48.758;8.888;2023-02-02T10:37:52;7.30;99.90
7708;DHT22;3896;48.758;8.888;2023-02-02T10:41:16;7.30;99.90
7708;DHT22;3896;48.758;8.888;2023-02-02T10:43:56;7.30;99.90
7708;DHT22;3896;48.758;8.888;2023-02-02T10:46:38;7.30;99.90
7708;DHT22;3896;48.758;8.888;2023-02-02T10:49:23;7.30;99.90
7708;DHT22;3896;48.758;8.888;2023-02-02T10:51:56;7.30;99.90
7708;DHT22;3896;48.758;8.888;2023-02-02T10:54:43;7.40;99.90
7708;DHT22;3896;48.758;8.888;2023-02-02T10:57:13;7.30;99.90
7708;DHT22;3896;48.758;8.888;2023-02-02T10:59:49;7.30;99.90
7708;DHT22;3896;48.758;8.888;2023-02-02T11:02:18;7.30;99.90
7708;DHT22;3896;48.758;8.888;2023-02-02T11:04:44;7.30;99.90
7708;DHT22;3896;48.758;8.888;2023-02-02T11:07:28;7.30;99.90
7708;DHT22;3896;48.758;8.888;2023-02-02T11:09:54;7.30;99.90
7708;DHT22;3896;48.758;8.888;2023-02-02T11:12:34;7.30;99.90
7708;DHT22;3896;48.758;8.888;2023-02-02T11:15:08;7.30;99.90
7708;DHT22;3896;48.758;8.888;2023-02-02T11:17:47;7.30;99.90
7708;DHT22;3896;48.758;8.888;2023-02-02T11:20:33;7.40;99.90
7708;DHT22;3896;48.758;8.888;2023-02-02T11:23:01;7.30;99.90
7708;DHT22;3896;48.758;8.888;2023-02-02T11:25:36;7.40;99.90
7708;DHT22;3896;48.758;8.888;2023-02-02T11:28:11;7.40;99.90
7708;DHT22;3896;48.758;8.888;2023-02-02T11:30:46;7.40;99.90
7708;DHT22;3896;48.758;8.888;2023-02-02T11:33:25;7.40;99.90
7708;DHT22;3896;48.758;8.888;2023-02-02T11:36:19;7.40;99.90
7708;DHT22;3896;48.758;8.888;2023-02-02T11:38:45;7.30;99.90
7708;DHT22;3896;48.758;8.888;2023-02-02T11:41:11;7.40;99.90
7708;DHT22;3896;48.758;8.888;2023-02-02T11:43:50;7.40;99.90
7708;DHT22;3896;48.758;8.888;2023-02-02T11:46:22;7.40;99.90
7708;DHT22;3896;48.758;8.888;2023-02-02T11:49:11;7.40;99.90
7708;DHT22;3896;48.758;8.888;2023-02-02T11:51:39;7.30;99.90
7708;DHT22;3896;48.758;8.888;2023-02-02T11:56:37;7.30;99.90
7708;DHT22;3896;48.758;8.888;2023-02-02T11:59:03;7.30;99.90
7708;DHT22;3896;48.758;8.888;2023-02-02T12:01:32;7.30;99.90
7708;DHT22;3896;48.758;8.888;2023-02-02T12:04:08;7.30;99.90
7708;DHT22;3896;48.758;8.888;2023-02-02T12:06:45;7.30;99.90
7708;DHT22;3896;48.758;8.888;2023-02-02T12:09:18;7.30;99.90
7708;DHT22;3896;48.758;8.888;2023-02-02T12:11:59;7.30;99.90
7708;DHT22;3896;48.758;8.888;2023-02-02T12:17:50;7.30;99.90
7708;DHT22;3896;48.758;8.888;2023-02-02T12:20:47;7.30;99.90
7708;DHT22;3896;48.758;8.888;2023-02-02T12:26:27;7.30;99.90
7708;DHT22;3896;48.758;8.888;2023-02-02T12:31:49;7.30;99.90
7708;DHT22;3896;48.758;8.888;2023-02-02T12:34:31;7.30;99.90
7708;DHT22;3896;48.758;8.888;2023-02-02T12:37:28;7.30;99.90
7708;DHT22;3896;48.758;8.888;2023-02-02T12:48:20;7.30;99.90
7708;DHT22;3896;48.758;8.888;2023-02-02T12:56:15;7.20;99.90
7708;DHT22;3896;48.758;8.888;2023-02-02T13:12:07;7.20;99.90
7708;DHT22;3896;48.758;8.888;2023-02-02T13:14:40;7.20;99.90
7708;DHT22;3896;48.758;8.888;2023-02-02T13:17:17;7.20;99.90
7708;DHT22;3896;48.758;8.888;2023-02-02T13:19:52;7.20;99.90
7708;DHT22;3896;48.758;8.888;2023-02-02T13:22:35;7.20;99.90
7708;DHT22;3896;48.758;8.888;2023-02-02T13:25:06;7.20;99.90
7708;DHT22;3896;48.758;8.888;2023-02-02T13:27:35;7.20;99.90
7708;DHT22;3896;48.758;8.888;2023-02-02T13:30:04;7.20;99.90
7708;DHT22;3896;48.758;8.888;2023-02-02T13:32:37;7.20;99.90
7708;DHT22;3896;48.758;8.888;2023-02-02T13:35:26;7.20;99.90
7708;DHT22;3896;48.758;8.888;2023-02-02T13:37:59;7.20;99.90
7708;DHT22;3896;48.758;8.888;2023-02-02T13:40:55;7.20;99.90
7708;DHT22;3896;48.758;8.888;2023-02-02T13:46:28;7.20;99.90
7708;DHT22;3896;48.758;8.888;2023-02-02T13:49:05;7.20;99.90
7708;DHT22;3896;48.758;8.888;2023-02-02T14:02:57;7.20;99.90
7708;DHT22;3896;48.758;8.888;2023-02-02T14:05:28;7.20;99.90
7708;DHT22;3896;48.758;8.888;2023-02-02T14:13:15;7.20;99.90
7708;DHT22;3896;48.758;8.888;2023-02-02T14:16:03;7.20;99.90
7708;DHT22;3896;48.758;8.888;2023-02-02T14:27:01;7.30;99.90
7708;DHT22;3896;48.758;8.888;2023-02-02T14:34:42;7.30;99.90
7708;DHT22;3896;48.758;8.888;2023-02-02T14:37:32;7.40;99.90
7708;DHT22;3896;48.758;8.888;2023-02-02T14:48:37;7.40;99.90
7708;DHT22;3896;48.758;8.888;2023-02-02T14:51:17;7.40;99.90
7708;DHT22;3896;48.758;8.888;2023-02-02T14:53:53;7.40;99.90
7708;DHT22;3896;48.758;8.888;2023-02-02T14:56:20;7.40;99.90
7708;DHT22;3896;48.758;8.888;2023-02-02T14:58:53;7.40;99.90
7708;DHT22;3896;48.758;8.888;2023-02-02T15:01:27;7.40;99.90
7708;DHT22;3896;48.758;8.888;2023-02-02T15:06:39;7.50;99.90
7708;DHT22;3896;48.758;8.888;2023-02-02T15:20:12;7.50;99.90
7708;DHT22;3896;48.758;8.888;2023-02-02T15:25:24;7.50;99.90
7708;DHT22;3896;48.758;8.888;2023-02-02T15:27:56;7.50;99.90
7708;DHT22;3896;48.758;8.888;2023-02-02T15:30:23;7.50;99.90
7708;DHT22;3896;48.758;8.888;2023-02-02T15:32:50;7.50;99.90
7708;DHT22;3896;48.758;8.888;2023-02-02T15:35:22;7.50;99.90
7708;DHT22;3896;48.758;8.888;2023-02-02T15:37:54;7.50;99.90
7708;DHT22;3896;48.758;8.888;2023-02-02T15:40:23;7.50;99.90
7708;DHT22;3896;48.758;8.888;2023-02-02T15:43:10;7.50;99.90
7708;DHT22;3896;48.758;8.888;2023-02-02T15:45:45;7.50;99.90
7708;DHT22;3896;48.758;8.888;2023-02-02T15:48:32;7.50;99.90
7708;DHT22;3896;48.758;8.888;2023-02-02T15:51:05;7.40;99.90
7708;DHT22;3896;48.758;8.888;2023-02-02T15:53:51;7.40;99.90
7708;DHT22;3896;48.758;8.888;2023-02-02T15:56:37;7.40;99.90
7708;DHT22;3896;48.758;8.888;2023-02-02T15:59:26;7.40;99.90
7708;DHT22;3896;48.758;8.888;2023-02-02T16:04:35;7.40;99.90
7708;DHT22;3896;48.758;8.888;2023-02-02T16:07:03;7.40;99.90
7708;DHT22;3896;48.758;8.888;2023-02-02T16:09:33;7.40;99.90
7708;DHT22;3896;48.758;8.888;2023-02-02T16:12:00;7.40;99.90
7708;DHT22;3896;48.758;8.888;2023-02-02T16:14:27;7.40;99.90
7708;DHT22;3896;48.758;8.888;2023-02-02T16:16:54;7.40;99.90
7708;DHT22;3896;48.758;8.888;2023-02-02T16:19:20;7.40;99.90
7708;DHT22;3896;48.758;8.888;2023-02-02T16:21:53;7.30;99.90
7708;DHT22;3896;48.758;8.888;2023-02-02T16:26:57;7.30;99.90
7708;DHT22;3896;48.758;8.888;2023-02-02T16:29:23;7.30;99.90
7708;DHT22;3896;48.758;8.888;2023-02-02T16:31:51;7.30;99.90
7708;DHT22;3896;48.758;8.888;2023-02-02T16:39:55;7.30;99.90
7708;DHT22;3896;48.758;8.888;2023-02-02T16:42:22;7.30;99.90
7708;DHT22;3896;48.758;8.888;2023-02-02T16:44:48;7.30;99.90
7708;DHT22;3896;48.758;8.888;2023-02-02T16:52:51;7.30;99.90
7708;DHT22;3896;48.758;8.888;2023-02-02T16:55:19;7.30;99.90
7708;DHT22;3896;48.758;8.888;2023-02-02T16:57:49;7.30;99.90
7708;DHT22;3896;48.758;8.888;2023-02-02T17:00:24;7.20;99.90
7708;DHT22;3896;48.758;8.888;2023-02-02T17:02:58;7.20;99.90
7708;DHT22;3896;48.758;8.888;2023-02-02T17:05:28;7.20;99.90
7708;DHT22;3896;48.758;8.888;2023-02-02T17:07:58;7.20;99.90
7708;DHT22;3896;48.758;8.888;2023-02-02T17:10:30;7.20;99.90
7708;DHT22;3896;48.758;8.888;2023-02-02T17:12:59;7.20;99.90
7708;DHT22;3896;48.758;8.888;2023-02-02T17:15:32;7.20;99.90
7708;DHT22;3896;48.758;8.888;2023-02-02T17:17:58;7.20;99.90
7708;DHT22;3896;48.758;8.888;2023-02-02T17:20:23;7.20;99.90
7708;DHT22;3896;48.758;8.888;2023-02-02T17:22:57;7.20;99.90
7708;DHT22;3896;48.758;8.888;2023-02-02T17:25:31;7.20;99.90
7708;DHT22;3896;48.758;8.888;2023-02-02T17:27:59;7.20;99.90
7708;DHT22;3896;48.758;8.888;2023-02-02T17:30:25;7.20;99.90
7708;DHT22;3896;48.758;8.888;2023-02-02T17:32:51;7.20;99.90
7708;DHT22;3896;48.758;8.888;2023-02-02T17:35:23;7.20;99.90
7708;DHT22;3896;48.758;8.888;2023-02-02T17:37:49;7.20;99.90
7708;DHT22;3896;48.758;8.888;2023-02-02T17:40:17;7.20;99.90
7708;DHT22;3896;48.758;8.888;2023-02-02T17:42:44;7.20;99.90
7708;DHT22;3896;48.758;8.888;2023-02-02T17:45:23;7.20;99.90
7708;DHT22;3896;48.758;8.888;2023-02-02T17:47:52;7.20;99.90
7708;DHT22;3896;48.758;8.888;2023-02-02T17:50:18;7.20;99.90
7708;DHT22;3896;48.758;8.888;2023-02-02T17:52:45;7.20;99.90
7708;DHT22;3896;48.758;8.888;2023-02-02T17:57:40;7.10;99.90
7708;DHT22;3896;48.758;8.888;2023-02-02T18:00:06;7.10;99.90
7708;DHT22;3896;48.758;8.888;2023-02-02T18:02:32;7.10;99.90
7708;DHT22;3896;48.758;8.888;2023-02-02T18:05:00;7.10;99.90
7708;DHT22;3896;48.758;8.888;2023-02-02T18:07:27;7.10;99.90
7708;DHT22;3896;48.758;8.888;2023-02-02T18:09:53;7.10;99.90
7708;DHT22;3896;48.758;8.888;2023-02-02T18:12:18;7.10;99.90
7708;DHT22;3896;48.758;8.888;2023-02-02T18:14:44;7.10;99.90
7708;DHT22;3896;48.758;8.888;2023-02-02T18:17:09;7.10;99.90
7708;DHT22;3896;48.758;8.888;2023-02-02T18:19:35;7.10;99.90
7708;DHT22;3896;48.758;8.888;2023-02-02T18:22:01;7.10;99.90
7708;DHT22;3896;48.758;8.888;2023-02-02T18:24:26;7.10;99.90
7708;DHT22;3896;48.758;8.888;2023-02-02T18:26:52;7.10;99.90
7708;DHT22;3896;48.758;8.888;2023-02-02T18:29:18;7.10;99.90
7708;DHT22;3896;48.758;8.888;2023-02-02T18:31:43;7.10;99.90
7708;DHT22;3896;48.758;8.888;2023-02-02T18:34:09;7.00;99.90
7708;DHT22;3896;48.758;8.888;2023-02-02T18:36:34;7.00;99.90
7708;DHT22;3896;48.758;8.888;2023-02-02T18:39:00;7.00;99.90
7708;DHT22;3896;48.758;8.888;2023-02-02T18:41:26;7.00;99.90
7708;DHT22;3896;48.758;8.888;2023-02-02T18:43:54;7.00;99.90
7708;DHT22;3896;48.758;8.888;2023-02-02T18:46:20;7.00;99.90
7708;DHT22;3896;48.758;8.888;2023-02-02T18:48:46;7.00;99.90
7708;DHT22;3896;48.758;8.888;2023-02-02T18:51:13;7.00;99.90
7708;DHT22;3896;48.758;8.888;2023-02-02T18:53:44;6.90;99.90
7708;DHT22;3896;48.758;8.888;2023-02-02T18:56:11;6.90;99.90
7708;DHT22;3896;48.758;8.888;2023-02-02T18:58:38;6.90;99.90
7708;DHT22;3896;48.758;8.888;2023-02-02T19:01:12;6.90;99.90
7708;DHT22;3896;48.758;8.888;2023-02-02T19:03:38;6.90;99.90
7708;DHT22;3896;48.758;8.888;2023-02-02T19:06:06;6.90;99.90
7708;DHT22;3896;48.758;8.888;2023-02-02T19:08:50;6.90;99.90
7708;DHT22;3896;48.758;8.888;2023-02-02T19:11:18;6.90;99.90
7708;DHT22;3896;48.758;8.888;2023-02-02T19:13:44;6.90;99.90